sensor_id;sensor_type;location;lat;lon;timestamp;temperature;humidity
36374;DHT22;22399;51.346;12.372;2023-04-01T00:01:12;9.20;99.90
36374;DHT22;22399;51.346;12.372;2023-04-01T00:03:42;9.20;99.90
36374;DHT22;22399;51.346;12.372;2023-04-01T00:06:13;9.20;99.90
36374;DHT22;22399;51.346;12.372;2023-04-01T00:08:42;9.20;99.90
36374;DHT22;22399;51.346;12.372;2023-04-01T00:11:13;9.20;99.90
36374;DHT22;22399;51.346;12.372;2023-04-01T00:13:42;9.20;99.90
36374;DHT22;22399;51.346;12.372;2023-04-01T00:16:11;9.20;99.90
36374;DHT22;22399;51.346;12.372;2023-04-01T00:18:49;9.10;99.90
36374;DHT22;22399;51.346;12.372;2023-04-01T00:21:19;9.20;99.90
36374;DHT22;22399;51.346;12.372;2023-04-01T00:23:49;9.10;99.90
36374;DHT22;22399;51.346;12.372;2023-04-01T00:26:20;9.10;99.90
36374;DHT22;22399;51.346;12.372;2023-04-01T00:28:49;9.10;99.90
36374;DHT22;22399;51.346;12.372;2023-04-01T00:31:19;9.10;99.90
36374;DHT22;22399;51.346;12.372;2023-04-01T00:33:47;9.10;99.90
36374;DHT22;22399;51.346;12.372;2023-04-01T00:36:17;9.10;99.90
36374;DHT22;22399;51.346;12.372;2023-04-01T00:38:47;9.00;99.90
36374;DHT22;22399;51.346;12.372;2023-04-01T00:41:16;9.00;99.90
36374;DHT22;22399;51.346;12.372;2023-04-01T00:43:48;9.00;99.90
36374;DHT22;22399;51.346;12.372;2023-04-01T00:46:17;9.00;99.90
36374;DHT22;22399;51.346;12.372;2023-04-01T00:48:48;9.00;99.90
36374;DHT22;22399;51.346;12.372;2023-04-01T00:51:20;9.00;99.90
36374;DHT22;22399;51.346;12.372;2023-04-01T00:53:52;8.90;99.90
36374;DHT22;22399;51.346;12.372;2023-04-01T00:56:24;8.90;99.90
36374;DHT22;22399;51.346;12.372;2023-04-01T00:58:58;9.00;99.90
36374;DHT22;22399;51.346;12.372;2023-04-01T01:01:28;9.00;99.90
36374;DHT22;22399;51.346;12.372;2023-04-01T01:03:58;9.00;99.90
36374;DHT22;22399;51.346;12.372;2023-04-01T01:06:42;9.00;99.90
36374;DHT22;22399;51.346;12.372;2023-04-01T01:09:22;9.00;99.90
36374;DHT22;22399;51.346;12.372;2023-04-01T01:12:00;9.10;99.90
36374;DHT22;22399;51.346;12.372;2023-04-01T01:14:43;9.10;99.90
36374;DHT22;22399;51.346;12.372;2023-04-01T01:17:18;9.10;99.90
36374;DHT22;22399;51.346;12.372;2023-04-01T01:20:04;9.10;99.90
36374;DHT22;22399;51.346;12.372;2023-04-01T01:26:09;9.10;99.90
36374;DHT22;22399;51.346;12.372;2023-04-01T01:28:51;9.10;99.90
36374;DHT22;22399;51.346;12.372;2023-04-01T01:31:32;9.20;99.90
36374;DHT22;22399;51.346;12.372;2023-04-01T01:34:11;9.20;99.90
36374;DHT22;22399;51.346;12.372;2023-04-01T01:36:46;9.20;99.90
36374;DHT22;22399;51.346;12.372;2023-04-01T01:39:18;9.20;99.90
36374;DHT22;22399;51.346;12.372;2023-04-01T01:41:49;9.20;99.90
36374;DHT22;22399;51.346;12.372;2023-04-01T01:44:18;9.20;99.90
36374;DHT22;22399;51.346;12.372;2023-04-01T01:46:47;9.20;99.90
36374;DHT22;22399;51.346;12.372;2023-04-01T01:49:18;9.30;99.90
36374;DHT22;22399;51.346;12.372;2023-04-01T01:51:48;9.30;99.90
36374;DHT22;22399;51.346;12.372;2023-04-01T01:54:18;9.30;99.90
36374;DHT22;22399;51.346;12.372;2023-04-01T01:56:48;9.30;99.90
36374;DHT22;22399;51.346;12.372;2023-04-01T01:59:21;9.30;99.90
36374;DHT22;22399;51.346;12.372;2023-04-01T02:01:53;9.30;99.90
36374;DHT22;22399;51.346;12.372;2023-04-01T02:04:24;9.30;99.90
36374;DHT22;22399;51.346;12.372;2023-04-01T02:06:58;9.30;99.90
36374;DHT22;22399;51.346;12.372;2023-04-01T02:09:28;9.30;99.90
36374;DHT22;22399;51.346;12.372;2023-04-01T02:11:59;9.30;99.90
36374;DHT22;22399;51.346;12.372;2023-04-01T02:14:39;9.30;99.90
36374;DHT22;22399;51.346;12.372;2023-04-01T02:17:11;9.40;99.90
36374;DHT22;22399;51.346;12.372;2023-04-01T02:19:46;9.40;99.90
36374;DHT22;22399;51.346;12.372;2023-04-01T02:22:20;9.40;99.90
36374;DHT22;22399;51.346;12.372;2023-04-01T02:24:50;9.40;99.90
36374;DHT22;22399;51.346;12.372;2023-04-01T02:27:20;9.40;99.90
36374;DHT22;22399;51.346;12.372;2023-04-01T02:29:49;9.40;99.90
36374;DHT22;22399;51.346;12.372;2023-04-01T02:32:19;9.40;99.90
36374;DHT22;22399;51.346;12.372;2023-04-01T02:34:48;9.40;99.90
36374;DHT22;22399;51.346;12.372;2023-04-01T02:37:18;9.40;99.90
36374;DHT22;22399;51.346;12.372;2023-04-01T02:39:46;9.40;99.90
36374;DHT22;22399;51.346;12.372;2023-04-01T02:42:15;9.40;99.90
36374;DHT22;22399;51.346;12.372;2023-04-01T02:44:43;9.40;99.90
36374;DHT22;22399;51.346;12.372;2023-04-01T02:47:11;9.40;99.90
36374;DHT22;22399;51.346;12.372;2023-04-01T02:49:40;9.40;99.90
36374;DHT22;22399;51.346;12.372;2023-04-01T02:52:08;9.40;99.90
36374;DHT22;22399;51.346;12.372;2023-04-01T02:54:38;9.40;99.90
36374;DHT22;22399;51.346;12.372;2023-04-01T02:57:07;9.40;99.90
36374;DHT22;22399;51.346;12.372;2023-04-01T02:59:36;9.40;99.90
36374;DHT22;22399;51.346;12.372;2023-04-01T03:02:04;9.50;99.90
36374;DHT22;22399;51.346;12.372;2023-04-01T03:04:34;9.40;99.90
36374;DHT22;22399;51.346;12.372;2023-04-01T03:07:02;9.40;99.90
36374;DHT22;22399;51.346;12.372;2023-04-01T03:09:31;9.40;99.90
36374;DHT22;22399;51.346;12.372;2023-04-01T03:12:01;9.40;99.90
36374;DHT22;22399;51.346;12.372;2023-04-01T03:14:32;9.40;99.90
36374;DHT22;22399;51.346;12.372;2023-04-01T03:17:01;9.30;99.90
36374;DHT22;22399;51.346;12.372;2023-04-01T03:19:30;9.30;99.90
36374;DHT22;22399;51.346;12.372;2023-04-01T03:22:02;9.30;99.90
36374;DHT22;22399;51.346;12.372;2023-04-01T03:24:30;9.30;99.90
36374;DHT22;22399;51.346;12.372;2023-04-01T03:27:00;9.20;99.90
36374;DHT22;22399;51.346;12.372;2023-04-01T03:29:29;9.20;99.90
36374;DHT22;22399;51.346;12.372;2023-04-01T03:31:57;9.20;99.90
36374;DHT22;22399;51.346;12.372;2023-04-01T03:34:26;9.10;99.90
36374;DHT22;22399;51.346;12.372;2023-04-01T03:36:55;9.10;99.90
36374;DHT22;22399;51.346;12.372;2023-04-01T03:39:24;9.10;99.90
36374;DHT22;22399;51.346;12.372;2023-04-01T03:41:54;9.10;99.90
36374;DHT22;22399;51.346;12.372;2023-04-01T03:44:23;9.10;99.90
36374;DHT22;22399;51.346;12.372;2023-04-01T03:46:54;9.10;99.90
36374;DHT22;22399;51.346;12.372;2023-04-01T03:49:23;9.10;99.90
36374;DHT22;22399;51.346;12.372;2023-04-01T03:51:51;9.10;99.90
36374;DHT22;22399;51.346;12.372;2023-04-01T03:54:20;9.10;99.90
36374;DHT22;22399;51.346;12.372;2023-04-01T03:56:48;9.00;99.90
36374;DHT22;22399;51.346;12.372;2023-04-01T03:59:17;9.00;99.90
36374;DHT22;22399;51.346;12.372;2023-04-01T04:01:48;9.00;99.90
36374;DHT22;22399;51.346;12.372;2023-04-01T04:04:16;9.00;99.90
36374;DHT22;22399;51.346;12.372;2023-04-01T04:06:45;9.00;99.90
36374;DHT22;22399;51.346;12.372;2023-04-01T04:09:14;9.00;99.90
36374;DHT22;22399;51.346;12.372;2023-04-01T04:11:42;9.00;99.90
36374;DHT22;22399;51.346;12.372;2023-04-01T04:14:11;9.00;99.90
36374;DHT22;22399;51.346;12.372;2023-04-01T04:16:39;9.00;99.90
36374;DHT22;22399;51.346;12.372;2023-04-01T04:19:11;9.00;99.90
36374;DHT22;22399;51.346;12.372;2023-04-01T04:21:39;9.00;99.90
36374;DHT22;22399;51.346;12.372;2023-04-01T04:24:09;8.90;99.90
36374;DHT22;22399;51.346;12.372;2023-04-01T04:27:06;9.00;99.90
36374;DHT22;22399;51.346;12.372;2023-04-01T04:29:41;9.00;99.90
36374;DHT22;22399;51.346;12.372;2023-04-01T04:32:09;8.90;99.90
36374;DHT22;22399;51.346;12.372;2023-04-01T04:34:39;8.90;99.90
36374;DHT22;22399;51.346;12.372;2023-04-01T04:37:08;8.90;99.90
36374;DHT22;22399;51.346;12.372;2023-04-01T04:39:37;8.90;99.90
36374;DHT22;22399;51.346;12.372;2023-04-01T04:42:05;8.90;99.90
36374;DHT22;22399;51.346;12.372;2023-04-01T04:44:34;8.90;99.90
36374;DHT22;22399;51.346;12.372;2023-04-01T04:47:02;8.90;99.90
36374;DHT22;22399;51.346;12.372;2023-04-01T04:49:31;8.80;99.90
36374;DHT22;22399;51.346;12.372;2023-04-01T04:52:06;8.80;99.90
36374;DHT22;22399;51.346;12.372;2023-04-01T04:54:34;8.80;99.90
36374;DHT22;22399;51.346;12.372;2023-04-01T04:57:04;8.80;99.90
36374;DHT22;22399;51.346;12.372;2023-04-01T04:59:43;8.80;99.90
36374;DHT22;22399;51.346;12.372;2023-04-01T05:02:22;8.80;99.90
36374;DHT22;22399;51.346;12.372;2023-04-01T05:04:51;8.80;99.90
36374;DHT22;22399;51.346;12.372;2023-04-01T05:07:21;8.80;99.90
36374;DHT22;22399;51.346;12.372;2023-04-01T05:09:49;8.80;99.90
36374;DHT22;22399;51.346;12.372;2023-04-01T05:12:18;8.90;99.90
36374;DHT22;22399;51.346;12.372;2023-04-01T05:14:57;8.90;99.90
36374;DHT22;22399;51.346;12.372;2023-04-01T05:17:25;8.90;99.90
36374;DHT22;22399;51.346;12.372;2023-04-01T05:19:54;8.90;99.90
36374;DHT22;22399;51.346;12.372;2023-04-01T05:22:24;8.90;99.90
36374;DHT22;22399;51.346;12.372;2023-04-01T05:24:52;9.00;99.90
36374;DHT22;22399;51.346;12.372;2023-04-01T05:27:21;9.00;99.90
36374;DHT22;22399;51.346;12.372;2023-04-01T05:29:50;9.00;99.90
36374;DHT22;22399;51.346;12.372;2023-04-01T05:32:40;9.10;99.90
36374;DHT22;22399;51.346;12.372;2023-04-01T05:35:10;9.10;99.90
36374;DHT22;22399;51.346;12.372;2023-04-01T05:37:40;9.20;99.90
36374;DHT22;22399;51.346;12.372;2023-04-01T05:40:09;9.30;99.90
36374;DHT22;22399;51.346;12.372;2023-04-01T05:42:48;9.30;99.90
36374;DHT22;22399;51.346;12.372;2023-04-01T05:45:17;9.30;99.90
36374;DHT22;22399;51.346;12.372;2023-04-01T05:48:11;9.30;99.90
36374;DHT22;22399;51.346;12.372;2023-04-01T05:50:41;9.30;99.90
36374;DHT22;22399;51.346;12.372;2023-04-01T05:53:12;9.30;99.90
36374;DHT22;22399;51.346;12.372;2023-04-01T05:55:42;9.30;99.90
36374;DHT22;22399;51.346;12.372;2023-04-01T05:58:11;9.30;99.90
36374;DHT22;22399;51.346;12.372;2023-04-01T06:00:42;9.30;99.90
36374;DHT22;22399;51.346;12.372;2023-04-01T06:03:15;9.30;99.90
36374;DHT22;22399;51.346;12.372;2023-04-01T06:05:45;9.30;99.90
36374;DHT22;22399;51.346;12.372;2023-04-01T06:08:17;9.30;99.90
36374;DHT22;22399;51.346;12.372;2023-04-01T06:11:10;9.30;99.90
36374;DHT22;22399;51.346;12.372;2023-04-01T06:13:57;9.40;99.90
36374;DHT22;22399;51.346;12.372;2023-04-01T06:16:36;9.40;99.90
36374;DHT22;22399;51.346;12.372;2023-04-01T06:19:24;9.50;99.90
36374;DHT22;22399;51.346;12.372;2023-04-01T06:22:14;9.50;99.90
36374;DHT22;22399;51.346;12.372;2023-04-01T06:25:01;9.60;99.90
36374;DHT22;22399;51.346;12.372;2023-04-01T06:27:51;9.60;99.90
36374;DHT22;22399;51.346;12.372;2023-04-01T06:30:35;9.70;99.90
36374;DHT22;22399;51.346;12.372;2023-04-01T06:36:19;9.70;99.90
36374;DHT22;22399;51.346;12.372;2023-04-01T06:42:15;9.70;99.90
36374;DHT22;22399;51.346;12.372;2023-04-01T06:44:54;9.80;99.90
36374;DHT22;22399;51.346;12.372;2023-04-01T06:48:11;9.80;99.90
36374;DHT22;22399;51.346;12.372;2023-04-01T06:51:12;9.90;99.90
36374;DHT22;22399;51.346;12.372;2023-04-01T06:54:18;9.90;99.90
36374;DHT22;22399;51.346;12.372;2023-04-01T06:57:08;10.00;99.90
36374;DHT22;22399;51.346;12.372;2023-04-01T06:59:44;10.00;99.90
36374;DHT22;22399;51.346;12.372;2023-04-01T07:02:21;10.00;99.90
36374;DHT22;22399;51.346;12.372;2023-04-01T07:04:53;10.10;99.90
36374;DHT22;22399;51.346;12.372;2023-04-01T07:07:29;10.10;99.90
36374;DHT22;22399;51.346;12.372;2023-04-01T07:10:05;10.20;99.90
36374;DHT22;22399;51.346;12.372;2023-04-01T07:13:04;10.30;99.90
36374;DHT22;22399;51.346;12.372;2023-04-01T07:16:11;10.40;99.90
36374;DHT22;22399;51.346;12.372;2023-04-01T07:18:45;10.50;99.90
36374;DHT22;22399;51.346;12.372;2023-04-01T07:21:25;10.60;99.90
36374;DHT22;22399;51.346;12.372;2023-04-01T07:24:01;10.80;99.90
36374;DHT22;22399;51.346;12.372;2023-04-01T07:26:37;10.90;99.90
36374;DHT22;22399;51.346;12.372;2023-04-01T07:29:12;10.90;99.90
36374;DHT22;22399;51.346;12.372;2023-04-01T07:34:54;10.90;99.90
36374;DHT22;22399;51.346;12.372;2023-04-01T07:37:28;10.90;99.90
36374;DHT22;22399;51.346;12.372;2023-04-01T07:40:08;10.90;99.90
36374;DHT22;22399;51.346;12.372;2023-04-01T07:42:54;10.90;99.90
36374;DHT22;22399;51.346;12.372;2023-04-01T07:45:31;10.90;99.90
36374;DHT22;22399;51.346;12.372;2023-04-01T07:48:15;10.90;99.90
36374;DHT22;22399;51.346;12.372;2023-04-01T07:50:52;11.10;99.90
36374;DHT22;22399;51.346;12.372;2023-04-01T07:53:29;11.20;99.90
36374;DHT22;22399;51.346;12.372;2023-04-01T07:56:05;11.40;99.90
36374;DHT22;22399;51.346;12.372;2023-04-01T07:58:47;11.60;99.90
36374;DHT22;22399;51.346;12.372;2023-04-01T08:01:41;11.70;99.90
36374;DHT22;22399;51.346;12.372;2023-04-01T08:04:25;11.80;99.90
36374;DHT22;22399;51.346;12.372;2023-04-01T08:07:00;11.80;99.90
36374;DHT22;22399;51.346;12.372;2023-04-01T08:09:42;11.80;99.90
36374;DHT22;22399;51.346;12.372;2023-04-01T08:12:37;11.70;99.90
36374;DHT22;22399;51.346;12.372;2023-04-01T08:15:39;11.60;99.90
36374;DHT22;22399;51.346;12.372;2023-04-01T08:18:26;11.60;99.90
36374;DHT22;22399;51.346;12.372;2023-04-01T08:20:59;11.60;99.90
36374;DHT22;22399;51.346;12.372;2023-04-01T08:23:31;11.60;99.90
36374;DHT22;22399;51.346;12.372;2023-04-01T08:26:05;11.60;99.90
36374;DHT22;22399;51.346;12.372;2023-04-01T08:28:43;11.60;99.90
36374;DHT22;22399;51.346;12.372;2023-04-01T08:31:17;11.70;99.90
36374;DHT22;22399;51.346;12.372;2023-04-01T08:33:47;11.80;99.90
36374;DHT22;22399;51.346;12.372;2023-04-01T08:36:21;11.90;99.90
36374;DHT22;22399;51.346;12.372;2023-04-01T08:39:09;11.90;99.90
36374;DHT22;22399;51.346;12.372;2023-04-01T08:42:24;12.00;99.90
36374;DHT22;22399;51.346;12.372;2023-04-01T08:45:26;12.00;99.90
36374;DHT22;22399;51.346;12.372;2023-04-01T08:51:42;12.00;99.90
36374;DHT22;22399;51.346;12.372;2023-04-01T08:54:21;12.20;99.90
36374;DHT22;22399;51.346;12.372;2023-04-01T08:56:56;12.10;99.90
36374;DHT22;22399;51.346;12.372;2023-04-01T08:59:38;12.10;99.90
36374;DHT22;22399;51.346;12.372;2023-04-01T09:02:46;12.10;99.90
36374;DHT22;22399;51.346;12.372;2023-04-01T09:08:34;12.30;99.90
36374;DHT22;22399;51.346;12.372;2023-04-01T09:11:10;12.30;99.90
36374;DHT22;22399;51.346;12.372;2023-04-01T09:14:12;12.30;99.90
36374;DHT22;22399;51.346;12.372;2023-04-01T09:20:16;12.40;99.90
36374;DHT22;22399;51.346;12.372;2023-04-01T09:23:08;12.60;99.90
36374;DHT22;22399;51.346;12.372;2023-04-01T09:25:48;12.70;99.90
36374;DHT22;22399;51.346;12.372;2023-04-01T09:28:27;12.80;99.90
36374;DHT22;22399;51.346;12.372;2023-04-01T09:31:30;12.90;99.90
36374;DHT22;22399;51.346;12.372;2023-04-01T09:34:52;12.70;99.90
36374;DHT22;22399;51.346;12.372;2023-04-01T09:37:34;12.70;99.90
36374;DHT22;22399;51.346;12.372;2023-04-01T09:40:15;12.80;99.90
36374;DHT22;22399;51.346;12.372;2023-04-01T09:43:25;12.80;99.90
36374;DHT22;22399;51.346;12.372;2023-04-01T09:46:20;12.70;99.90
36374;DHT22;22399;51.346;12.372;2023-04-01T09:49:28;12.70;99.90
36374;DHT22;22399;51.346;12.372;2023-04-01T09:52:15;12.60;99.90
36374;DHT22;22399;51.346;12.372;2023-04-01T09:58:22;12.80;99.90
36374;DHT22;22399;51.346;12.372;2023-04-01T10:01:34;12.80;99.90
36374;DHT22;22399;51.346;12.372;2023-04-01T10:04:55;12.80;99.90
36374;DHT22;22399;51.346;12.372;2023-04-01T10:20:22;12.30;99.90
36374;DHT22;22399;51.346;12.372;2023-04-01T10:23:15;12.30;99.90
36374;DHT22;22399;51.346;12.372;2023-04-01T10:32:28;12.30;99.90
36374;DHT22;22399;51.346;12.372;2023-04-01T10:35:37;12.30;99.90
36374;DHT22;22399;51.346;12.372;2023-04-01T10:41:37;12.40;99.90
36374;DHT22;22399;51.346;12.372;2023-04-01T10:45:19;12.50;99.90
36374;DHT22;22399;51.346;12.372;2023-04-01T10:48:18;12.60;99.90
36374;DHT22;22399;51.346;12.372;2023-04-01T10:51:10;12.50;99.90
36374;DHT22;22399;51.346;12.372;2023-04-01T10:53:49;12.40;99.90
36374;DHT22;22399;51.346;12.372;2023-04-01T10:56:59;12.40;99.90
36374;DHT22;22399;51.346;12.372;2023-04-01T11:00:24;12.50;99.90
36374;DHT22;22399;51.346;12.372;2023-04-01T11:07:14;12.60;99.90
36374;DHT22;22399;51.346;12.372;2023-04-01T11:10:15;12.70;99.90
36374;DHT22;22399;51.346;12.372;2023-04-01T11:16:13;13.10;99.90
36374;DHT22;22399;51.346;12.372;2023-04-01T11:19:18;13.30;99.90
36374;DHT22;22399;51.346;12.372;2023-04-01T11:22:07;13.40;99.90
36374;DHT22;22399;51.346;12.372;2023-04-01T11:28:37;13.50;99.90
36374;DHT22;22399;51.346;12.372;2023-04-01T11:31:20;13.40;99.90
36374;DHT22;22399;51.346;12.372;2023-04-01T11:33:56;13.30;99.90
36374;DHT22;22399;51.346;12.372;2023-04-01T11:36:36;13.30;99.90
36374;DHT22;22399;51.346;12.372;2023-04-01T11:39:20;13.30;99.90
36374;DHT22;22399;51.346;12.372;2023-04-01T11:42:20;13.50;99.90
36374;DHT22;22399;51.346;12.372;2023-04-01T11:48:21;15.00;99.90
36374;DHT22;22399;51.346;12.372;2023-04-01T11:51:17;15.30;99.90
36374;DHT22;22399;51.346;12.372;2023-04-01T11:53:56;15.20;99.90
36374;DHT22;22399;51.346;12.372;2023-04-01T11:56:41;15.10;99.90
36374;DHT22;22399;51.346;12.372;2023-04-01T11:59:32;15.00;99.90
36374;DHT22;22399;51.346;12.372;2023-04-01T12:02:12;14.80;99.90
36374;DHT22;22399;51.346;12.372;2023-04-01T12:04:58;14.30;99.90
36374;DHT22;22399;51.346;12.372;2023-04-01T12:07:48;13.50;99.90
36374;DHT22;22399;51.346;12.372;2023-04-01T12:10:21;12.80;99.90
36374;DHT22;22399;51.346;12.372;2023-04-01T12:12:59;12.50;99.90
36374;DHT22;22399;51.346;12.372;2023-04-01T12:15:37;12.40;99.90
36374;DHT22;22399;51.346;12.372;2023-04-01T12:18:20;12.40;99.90
36374;DHT22;22399;51.346;12.372;2023-04-01T12:20:53;12.30;99.90
36374;DHT22;22399;51.346;12.372;2023-04-01T12:23:42;12.20;99.90
36374;DHT22;22399;51.346;12.372;2023-04-01T12:26:26;12.20;99.90
36374;DHT22;22399;51.346;12.372;2023-04-01T12:29:07;12.10;99.90
36374;DHT22;22399;51.346;12.372;2023-04-01T12:31:45;12.00;99.90
36374;DHT22;22399;51.346;12.372;2023-04-01T12:34:49;11.80;99.90
36374;DHT22;22399;51.346;12.372;2023-04-01T12:37:33;11.80;99.90
36374;DHT22;22399;51.346;12.372;2023-04-01T12:40:31;11.80;99.90
36374;DHT22;22399;51.346;12.372;2023-04-01T12:46:13;11.70;99.90
36374;DHT22;22399;51.346;12.372;2023-04-01T12:52:05;11.90;99.90
36374;DHT22;22399;51.346;12.372;2023-04-01T12:57:58;12.20;99.90
36374;DHT22;22399;51.346;12.372;2023-04-01T13:00:57;12.20;99.90
36374;DHT22;22399;51.346;12.372;2023-04-01T13:03:52;12.30;99.90
36374;DHT22;22399;51.346;12.372;2023-04-01T13:06:32;12.30;99.90
36374;DHT22;22399;51.346;12.372;2023-04-01T13:09:21;12.40;99.90
36374;DHT22;22399;51.346;12.372;2023-04-01T13:12:05;12.40;99.90
36374;DHT22;22399;51.346;12.372;2023-04-01T13:15:09;12.50;99.90
36374;DHT22;22399;51.346;12.372;2023-04-01T13:17:45;12.40;99.90
36374;DHT22;22399;51.346;12.372;2023-04-01T13:20:25;12.30;99.90
36374;DHT22;22399;51.346;12.372;2023-04-01T13:23:06;12.30;99.90
36374;DHT22;22399;51.346;12.372;2023-04-01T13:25:41;12.30;99.90
36374;DHT22;22399;51.346;12.372;2023-04-01T13:28:15;12.30;99.90
36374;DHT22;22399;51.346;12.372;2023-04-01T13:30:52;12.30;99.90
36374;DHT22;22399;51.346;12.372;2023-04-01T13:33:30;12.20;99.90
36374;DHT22;22399;51.346;12.372;2023-04-01T13:36:19;12.20;99.90
36374;DHT22;22399;51.346;12.372;2023-04-01T13:39:06;12.20;99.90
36374;DHT22;22399;51.346;12.372;2023-04-01T13:41:54;12.20;99.90
36374;DHT22;22399;51.346;12.372;2023-04-01T13:44:32;12.10;99.90
36374;DHT22;22399;51.346;12.372;2023-04-01T13:47:47;12.00;99.90
36374;DHT22;22399;51.346;12.372;2023-04-01T13:50:37;11.90;99.90
36374;DHT22;22399;51.346;12.372;2023-04-01T13:53:21;11.90;99.90
36374;DHT22;22399;51.346;12.372;2023-04-01T13:56:02;11.80;99.90
36374;DHT22;22399;51.346;12.372;2023-04-01T13:58:47;11.80;99.90
36374;DHT22;22399;51.346;12.372;2023-04-01T14:01:29;11.80;99.90
36374;DHT22;22399;51.346;12.372;2023-04-01T14:04:42;11.70;99.90
36374;DHT22;22399;51.346;12.372;2023-04-01T14:07:23;11.70;99.90
36374;DHT22;22399;51.346;12.372;2023-04-01T14:10:06;11.60;99.90
36374;DHT22;22399;51.346;12.372;2023-04-01T14:12:41;11.50;99.90
36374;DHT22;22399;51.346;12.372;2023-04-01T14:18:42;11.60;99.90
36374;DHT22;22399;51.346;12.372;2023-04-01T14:21:21;11.50;99.90
36374;DHT22;22399;51.346;12.372;2023-04-01T14:24:24;11.50;99.90
36374;DHT22;22399;51.346;12.372;2023-04-01T14:30:14;11.50;99.90
36374;DHT22;22399;51.346;12.372;2023-04-01T14:32:51;11.50;99.90
36374;DHT22;22399;51.346;12.372;2023-04-01T14:35:29;11.40;99.90
36374;DHT22;22399;51.346;12.372;2023-04-01T14:38:30;11.30;99.90
36374;DHT22;22399;51.346;12.372;2023-04-01T14:41:25;11.30;99.90
36374;DHT22;22399;51.346;12.372;2023-04-01T14:44:29;11.30;99.90
36374;DHT22;22399;51.346;12.372;2023-04-01T14:50:14;11.20;99.90
36374;DHT22;22399;51.346;12.372;2023-04-01T14:52:54;11.20;99.90
36374;DHT22;22399;51.346;12.372;2023-04-01T14:55:31;11.30;99.90
36374;DHT22;22399;51.346;12.372;2023-04-01T14:58:13;11.30;99.90
36374;DHT22;22399;51.346;12.372;2023-04-01T15:00:48;11.30;99.90
36374;DHT22;22399;51.346;12.372;2023-04-01T15:03:22;11.30;99.90
36374;DHT22;22399;51.346;12.372;2023-04-01T15:06:01;11.30;99.90
36374;DHT22;22399;51.346;12.372;2023-04-01T15:08:49;11.20;99.90
36374;DHT22;22399;51.346;12.372;2023-04-01T15:11:33;11.20;99.90
36374;DHT22;22399;51.346;12.372;2023-04-01T15:14:26;11.20;99.90
36374;DHT22;22399;51.346;12.372;2023-04-01T15:17:13;11.10;99.90
36374;DHT22;22399;51.346;12.372;2023-04-01T15:19:57;11.10;99.90
36374;DHT22;22399;51.346;12.372;2023-04-01T15:22:54;11.20;99.90
36374;DHT22;22399;51.346;12.372;2023-04-01T15:25:35;11.30;99.90
36374;DHT22;22399;51.346;12.372;2023-04-01T15:28:17;11.40;99.90
36374;DHT22;22399;51.346;12.372;2023-04-01T15:30:54;11.50;99.90
36374;DHT22;22399;51.346;12.372;2023-04-01T15:33:39;11.40;99.90
36374;DHT22;22399;51.346;12.372;2023-04-01T15:36:20;11.30;99.90
36374;DHT22;22399;51.346;12.372;2023-04-01T15:39:02;11.10;99.90
36374;DHT22;22399;51.346;12.372;2023-04-01T15:41:40;11.00;99.90
36374;DHT22;22399;51.346;12.372;2023-04-01T15:44:37;11.00;99.90
36374;DHT22;22399;51.346;12.372;2023-04-01T15:47:36;11.00;99.90
36374;DHT22;22399;51.346;12.372;2023-04-01T15:53:16;11.00;99.90
36374;DHT22;22399;51.346;12.372;2023-04-01T15:55:51;10.90;99.90
36374;DHT22;22399;51.346;12.372;2023-04-01T15:58:40;10.90;99.90
36374;DHT22;22399;51.346;12.372;2023-04-01T16:01:19;10.80;99.90
36374;DHT22;22399;51.346;12.372;2023-04-01T16:03:55;10.70;99.90
36374;DHT22;22399;51.346;12.372;2023-04-01T16:06:42;10.70;99.90
36374;DHT22;22399;51.346;12.372;2023-04-01T16:09:17;10.70;99.90
36374;DHT22;22399;51.346;12.372;2023-04-01T16:11:53;10.70;99.90
36374;DHT22;22399;51.346;12.372;2023-04-01T16:14:33;10.70;99.90
36374;DHT22;22399;51.346;12.372;2023-04-01T16:17:18;10.70;99.90
36374;DHT22;22399;51.346;12.372;2023-04-01T16:19:52;10.70;99.90
36374;DHT22;22399;51.346;12.372;2023-04-01T16:22:25;10.60;99.90
36374;DHT22;22399;51.346;12.372;2023-04-01T16:25:04;10.60;99.90
36374;DHT22;22399;51.346;12.372;2023-04-01T16:27:40;10.50;99.90
36374;DHT22;22399;51.346;12.372;2023-04-01T16:30:25;10.50;99.90
36374;DHT22;22399;51.346;12.372;2023-04-01T16:33:00;10.50;99.90
36374;DHT22;22399;51.346;12.372;2023-04-01T16:35:37;10.50;99.90
36374;DHT22;22399;51.346;12.372;2023-04-01T16:38:16;10.60;99.90
36374;DHT22;22399;51.346;12.372;2023-04-01T16:40:53;10.60;99.90
36374;DHT22;22399;51.346;12.372;2023-04-01T16:43:28;10.60;99.90
36374;DHT22;22399;51.346;12.372;2023-04-01T16:46:25;10.60;99.90
36374;DHT22;22399;51.346;12.372;2023-04-01T16:51:52;10.50;99.90
36374;DHT22;22399;51.346;12.372;2023-04-01T16:54:28;10.50;99.90
36374;DHT22;22399;51.346;12.372;2023-04-01T16:57:10;10.50;99.90
36374;DHT22;22399;51.346;12.372;2023-04-01T16:59:47;10.50;99.90
36374;DHT22;22399;51.346;12.372;2023-04-01T17:02:25;10.50;99.90
36374;DHT22;22399;51.346;12.372;2023-04-01T17:04:58;10.40;99.90
36374;DHT22;22399;51.346;12.372;2023-04-01T17:07:38;10.40;99.90
36374;DHT22;22399;51.346;12.372;2023-04-01T17:10:28;10.40;99.90
36374;DHT22;22399;51.346;12.372;2023-04-01T17:13:14;10.40;99.90
36374;DHT22;22399;51.346;12.372;2023-04-01T17:15:49;10.40;99.90
36374;DHT22;22399;51.346;12.372;2023-04-01T17:18:27;10.30;99.90
36374;DHT22;22399;51.346;12.372;2023-04-01T17:21:06;10.30;99.90
36374;DHT22;22399;51.346;12.372;2023-04-01T17:23:38;10.30;99.90
36374;DHT22;22399;51.346;12.372;2023-04-01T17:26:20;10.30;99.90
36374;DHT22;22399;51.346;12.372;2023-04-01T17:28:58;10.20;99.90
36374;DHT22;22399;51.346;12.372;2023-04-01T17:31:45;10.20;99.90
36374;DHT22;22399;51.346;12.372;2023-04-01T17:37:28;10.10;99.90
36374;DHT22;22399;51.346;12.372;2023-04-01T17:40:15;10.10;99.90
36374;DHT22;22399;51.346;12.372;2023-04-01T17:42:50;10.10;99.90
36374;DHT22;22399;51.346;12.372;2023-04-01T17:45:26;10.10;99.90
36374;DHT22;22399;51.346;12.372;2023-04-01T17:48:03;10.00;99.90
36374;DHT22;22399;51.346;12.372;2023-04-01T17:50:49;10.00;99.90
36374;DHT22;22399;51.346;12.372;2023-04-01T17:53:33;10.00;99.90
36374;DHT22;22399;51.346;12.372;2023-04-01T17:56:12;10.00;99.90
36374;DHT22;22399;51.346;12.372;2023-04-01T17:58:46;9.90;99.90
36374;DHT22;22399;51.346;12.372;2023-04-01T18:01:25;9.90;99.90
36374;DHT22;22399;51.346;12.372;2023-04-01T18:04:21;9.90;99.90
36374;DHT22;22399;51.346;12.372;2023-04-01T18:07:07;9.90;99.90
36374;DHT22;22399;51.346;12.372;2023-04-01T18:09:45;9.90;99.90
36374;DHT22;22399;51.346;12.372;2023-04-01T18:12:24;9.80;99.90